N964GB KDDH-KRUT
Flight info
| Callsign | N964GB |
|---|---|
| Flight time | 0h 24m |
| Altitude | 2000 |
| Route | VFR |
| Aircraft | PA18/L-VGD/C |
Departure
| Time | 2026-04-21 15:34 |
|---|---|
| Airport | William H Morse State Airport (KDDH) |
Arrival
| Time | 2026-04-21 15:59 |
|---|---|
| Airport | Rutland - Southern Vermont Regional Airport (KRUT) |
| Time | Latitude | Longitude | Altitude | Speed | Heading |
|---|---|---|---|---|---|
| 2026-04-21 15:29 | 42.89057 | -73.24755 | 790 ft | 0 kts | 26° |
| 2026-04-21 15:30 | 42.89066 | -73.24732 | 791 ft | 0 kts | 172° |
| 2026-04-21 15:30 | 42.89063 | -73.24731 | 791 ft | 6 kts | 171° |
| 2026-04-21 15:31 | 42.89033 | -73.24711 | 791 ft | 8 kts | 162° |
| 2026-04-21 15:31 | 42.89055 | -73.24674 | 792 ft | 7 kts | 24° |
| 2026-04-21 15:31 | 42.89049 | -73.24618 | 794 ft | 5 kts | 119° |
| 2026-04-21 15:31 | 42.89039 | -73.24578 | 796 ft | 0 kts | 112° |
| 2026-04-21 15:32 | 42.89039 | -73.24577 | 796 ft | 0 kts | 112° |
| 2026-04-21 15:32 | 42.89030 | -73.24554 | 797 ft | 1 kts | 120° |
| 2026-04-21 15:32 | 42.89028 | -73.24547 | 797 ft | 2 kts | 91° |
| 2026-04-21 15:33 | 42.89030 | -73.24537 | 797 ft | 1 kts | 40° |
| 2026-04-21 15:33 | 42.89086 | -73.24532 | 797 ft | 9 kts | 322° |
| 2026-04-21 15:33 | 42.89155 | -73.24708 | 792 ft | 32 kts | 302° |
| 2026-04-21 15:33 | 42.89052 | -73.25074 | 915 ft | 55 kts | 208° |
| 2026-04-21 15:34 | 42.88895 | -73.24703 | 1143 ft | 68 kts | 46° |
| 2026-04-21 15:34 | 42.89315 | -73.24618 | 1486 ft | 61 kts | 333° |
| 2026-04-21 15:34 | 42.89726 | -73.24905 | 1710 ft | 74 kts | 332° |
| 2026-04-21 15:34 | 42.90282 | -73.24800 | 1949 ft | 80 kts | 12° |
| 2026-04-21 15:35 | 42.90802 | -73.24654 | 2257 ft | 79 kts | 358° |
| 2026-04-21 15:35 | 42.91356 | -73.24656 | 2467 ft | 87 kts | 351° |
| 2026-04-21 15:35 | 42.91902 | -73.24857 | 2845 ft | 68 kts | 324° |
| 2026-04-21 15:35 | 42.92539 | -73.25028 | 2684 ft | 106 kts | 357° |
| 2026-04-21 15:36 | 42.93167 | -73.24987 | 3094 ft | 82 kts | 351° |
| 2026-04-21 15:36 | 42.93765 | -73.25052 | 3280 ft | 91 kts | 354° |
| 2026-04-21 15:36 | 42.94421 | -73.24907 | 3413 ft | 99 kts | 14° |
| 2026-04-21 15:36 | 42.95026 | -73.24417 | 3475 ft | 109 kts | 47° |
| 2026-04-21 15:37 | 42.95532 | -73.23628 | 3558 ft | 110 kts | 38° |
| 2026-04-21 15:37 | 42.96145 | -73.22964 | 3596 ft | 111 kts | 41° |
| 2026-04-21 15:37 | 42.96676 | -73.22292 | 3834 ft | 100 kts | 28° |
| 2026-04-21 15:37 | 42.97291 | -73.21886 | 4006 ft | 100 kts | 26° |
| 2026-04-21 15:38 | 42.97877 | -73.21374 | 4202 ft | 100 kts | 28° |
| 2026-04-21 15:38 | 42.98447 | -73.20935 | 4405 ft | 101 kts | 19° |
| 2026-04-21 15:38 | 42.99228 | -73.20563 | 4015 ft | 130 kts | 16° |
| 2026-04-21 15:38 | 43.00053 | -73.19940 | 3571 ft | 140 kts | 32° |
| 2026-04-21 15:39 | 43.00821 | -73.19173 | 3236 ft | 138 kts | 36° |
| 2026-04-21 15:39 | 43.01566 | -73.18465 | 3109 ft | 129 kts | 29° |
| 2026-04-21 15:39 | 43.02224 | -73.17480 | 2082 ft | 159 kts | 58° |
| 2026-04-21 15:39 | 43.03032 | -73.16760 | 1711 ft | 135 kts | 1° |
| 2026-04-21 15:40 | 43.03931 | -73.16707 | 1546 ft | 123 kts | 9° |
| 2026-04-21 15:40 | 43.04711 | -73.16351 | 1547 ft | 112 kts | 21° |
| 2026-04-21 15:40 | 43.05316 | -73.15713 | 1640 ft | 108 kts | 43° |
| 2026-04-21 15:40 | 43.05824 | -73.15005 | 1813 ft | 102 kts | 45° |
| 2026-04-21 15:41 | 43.06208 | -73.14205 | 2040 ft | 94 kts | 50° |
| 2026-04-21 15:41 | 43.06694 | -73.13587 | 2214 ft | 99 kts | 43° |
| 2026-04-21 15:41 | 43.07106 | -73.12734 | 2185 ft | 113 kts | 59° |
| 2026-04-21 15:41 | 43.07592 | -73.11917 | 2340 ft | 105 kts | 43° |
| 2026-04-21 15:42 | 43.08202 | -73.11330 | 2449 ft | 106 kts | 24° |
| 2026-04-21 15:42 | 43.08830 | -73.10879 | 2624 ft | 104 kts | 31° |
| 2026-04-21 15:42 | 43.09437 | -73.10437 | 2903 ft | 94 kts | 22° |
| 2026-04-21 15:42 | 43.10011 | -73.10044 | 3137 ft | 95 kts | 24° |
| 2026-04-21 15:43 | 43.10569 | -73.09573 | 3414 ft | 91 kts | 32° |
| 2026-04-21 15:43 | 43.11082 | -73.09062 | 3695 ft | 88 kts | 31° |
| 2026-04-21 15:43 | 43.11586 | -73.08588 | 3943 ft | 90 kts | 27° |
| 2026-04-21 15:43 | 43.12161 | -73.08064 | 4045 ft | 100 kts | 32° |
| 2026-04-21 15:44 | 43.12637 | -73.07758 | 4552 ft | 56 kts | 331° |
| 2026-04-21 15:44 | 43.13204 | -73.07697 | 4197 ft | 122 kts | 34° |
| 2026-04-21 15:44 | 43.13900 | -73.07201 | 4203 ft | 115 kts | 357° |
| 2026-04-21 15:44 | 43.14624 | -73.06640 | 4101 ft | 119 kts | 39° |
| 2026-04-21 15:45 | 43.15216 | -73.06036 | 4374 ft | 101 kts | 24° |
| 2026-04-21 15:45 | 43.15837 | -73.05575 | 4509 ft | 104 kts | 22° |
| 2026-04-21 15:45 | 43.16517 | -73.05190 | 4604 ft | 103 kts | 11° |
| 2026-04-21 15:45 | 43.17248 | -73.04978 | 4658 ft | 105 kts | 1° |
| 2026-04-21 15:46 | 43.18045 | -73.04805 | 4417 ft | 124 kts | 13° |
| 2026-04-21 15:46 | 43.18873 | -73.04427 | 4205 ft | 127 kts | 12° |
| 2026-04-21 15:46 | 43.19674 | -73.03992 | 4189 ft | 117 kts | 30° |
| 2026-04-21 15:46 | 43.20255 | -73.03456 | 4491 ft | 102 kts | 36° |
| 2026-04-21 15:47 | 43.20866 | -73.02869 | 4505 ft | 110 kts | 29° |
| 2026-04-21 15:47 | 43.21594 | -73.02445 | 4504 ft | 111 kts | 20° |
| 2026-04-21 15:47 | 43.22259 | -73.02031 | 4729 ft | 101 kts | 18° |
| 2026-04-21 15:47 | 43.22951 | -73.01701 | 4789 ft | 107 kts | 21° |
| 2026-04-21 15:48 | 43.23642 | -73.01395 | 4889 ft | 105 kts | 2° |
| 2026-04-21 15:48 | 43.24443 | -73.01154 | 4452 ft | 137 kts | 7° |
| 2026-04-21 15:48 | 43.25424 | -73.00959 | 3721 ft | 145 kts | 6° |
| 2026-04-21 15:48 | 43.26392 | -73.00661 | 3275 ft | 140 kts | 12° |
| 2026-04-21 15:49 | 43.27331 | -73.00330 | 2711 ft | 145 kts | 11° |
| 2026-04-21 15:49 | 43.28321 | -72.99961 | 2014 ft | 141 kts | 13° |
| 2026-04-21 15:49 | 43.29252 | -72.99773 | 1645 ft | 131 kts | 2° |
| 2026-04-21 15:49 | 43.30072 | -72.99509 | 1629 ft | 117 kts | 10° |
| 2026-04-21 15:50 | 43.30786 | -72.99318 | 1920 ft | 94 kts | 9° |
| 2026-04-21 15:50 | 43.31364 | -72.99245 | 2289 ft | 82 kts | 356° |
| 2026-04-21 15:50 | 43.31933 | -72.99288 | 2558 ft | 81 kts | 343° |
| 2026-04-21 15:50 | 43.32460 | -72.99571 | 2714 ft | 92 kts | 347° |
| 2026-04-21 15:51 | 43.33165 | -72.99657 | 2761 ft | 102 kts | 348° |
| 2026-04-21 15:51 | 43.33836 | -72.99775 | 3000 ft | 95 kts | 353° |
| 2026-04-21 15:51 | 43.34467 | -72.99937 | 3249 ft | 89 kts | 339° |
| 2026-04-21 15:51 | 43.35212 | -73.00013 | 3052 ft | 114 kts | 346° |
| 2026-04-21 15:52 | 43.36044 | -73.00106 | 2884 ft | 120 kts | 354° |
| 2026-04-21 15:52 | 43.36827 | -73.00063 | 3038 ft | 106 kts | 1° |
| 2026-04-21 15:52 | 43.37535 | -72.99924 | 3248 ft | 99 kts | 4° |
| 2026-04-21 15:52 | 43.38228 | -72.99756 | 3354 ft | 105 kts | 6° |
| 2026-04-21 15:53 | 43.38928 | -72.99633 | 3550 ft | 100 kts | 8° |
| 2026-04-21 15:53 | 43.39597 | -72.99416 | 3714 ft | 102 kts | 7° |
| 2026-04-21 15:53 | 43.40300 | -72.99223 | 3836 ft | 99 kts | 7° |
| 2026-04-21 15:53 | 43.40876 | -72.99076 | 3879 ft | 80 kts | 1° |
| 2026-04-21 15:54 | 43.41468 | -72.98946 | 3734 ft | 88 kts | 7° |
| 2026-04-21 15:54 | 43.42065 | -72.98756 | 3643 ft | 89 kts | 6° |
| 2026-04-21 15:54 | 43.42638 | -72.98499 | 3577 ft | 89 kts | 18° |
| 2026-04-21 15:54 | 43.43215 | -72.98204 | 3440 ft | 95 kts | 13° |
| 2026-04-21 15:55 | 43.43890 | -72.97990 | 3205 ft | 97 kts | 6° |
| 2026-04-21 15:55 | 43.44472 | -72.97610 | 3154 ft | 90 kts | 21° |
| 2026-04-21 15:55 | 43.45051 | -72.97329 | 3128 ft | 81 kts | 10° |
| 2026-04-21 15:55 | 43.45569 | -72.96949 | 3055 ft | 86 kts | 26° |
| 2026-04-21 15:56 | 43.46107 | -72.96594 | 3008 ft | 83 kts | 27° |
| 2026-04-21 15:56 | 43.46616 | -72.96180 | 2933 ft | 85 kts | 24° |
| 2026-04-21 15:56 | 43.47172 | -72.95834 | 2821 ft | 89 kts | 15° |
| 2026-04-21 15:56 | 43.47766 | -72.95638 | 2724 ft | 88 kts | 0° |
| 2026-04-21 15:57 | 43.48386 | -72.95405 | 2638 ft | 91 kts | 15° |
| 2026-04-21 15:57 | 43.48981 | -72.95139 | 2595 ft | 94 kts | 13° |
| 2026-04-21 15:57 | 43.49592 | -72.94949 | 2373 ft | 91 kts | 4° |
| 2026-04-21 15:57 | 43.50248 | -72.94857 | 1923 ft | 100 kts | 357° |
| 2026-04-21 15:58 | 43.50935 | -72.94874 | 1434 ft | 95 kts | 355° |
| 2026-04-21 15:58 | 43.51535 | -72.94899 | 1181 ft | 77 kts | 356° |
| 2026-04-21 15:58 | 43.52036 | -72.94917 | 969 ft | 70 kts | 355° |
| 2026-04-21 15:58 | 43.52486 | -72.94943 | 809 ft | 58 kts | 352° |
| 2026-04-21 15:59 | 43.52822 | -72.94972 | 765 ft | 32 kts | 30° |
| 2026-04-21 15:59 | 43.52818 | -72.94952 | 765 ft | 27 kts | 199° |
| 2026-04-21 15:59 | 43.52520 | -72.94919 | 908 ft | 51 kts | 179° |
| 2026-04-21 15:59 | 43.52161 | -72.94992 | 1120 ft | 62 kts | 229° |
| 2026-04-21 16:00 | 43.52329 | -72.95496 | 1309 ft | 60 kts | 309° |
| 2026-04-21 16:00 | 43.52478 | -72.95995 | 1458 ft | 50 kts | 291° |
| 2026-04-21 16:00 | 43.52703 | -72.96386 | 1522 ft | 61 kts | 315° |
| 2026-04-21 16:00 | 43.53161 | -72.96213 | 1205 ft | 81 kts | 52° |
| 2026-04-21 16:01 | 43.52945 | -72.95544 | 853 ft | 78 kts | 122° |
| 2026-04-21 16:01 | 43.52721 | -72.94986 | 764 ft | 50 kts | 122° |
| 2026-04-21 16:01 | 43.52668 | -72.94768 | 763 ft | 6 kts | 311° |
| 2026-04-21 16:01 | 43.52705 | -72.94830 | 763 ft | 6 kts | 351° |
| 2026-04-21 16:02 | 43.52714 | -72.94832 | 761 ft | 0 kts | 345° |